KSUX/SUX METAR and TAF weather

Enter ICAO airport designator
Station Type Date Time Source
KSUX METAR 2021/05/11 21:52 UTC NOAA

KSUX 112152Z 14009G14KT 10SM CLR 16/M03 A3030 RMK AO2 SLP264 T01611028


Station Type Date Time Source
KSUX Decoded METAR 2021/05/11 21:52 UTC NOAA

SIOUX GATEWAY AIRPORT, IA, United States (KSUX) 42-23N 96-23W 338M
May 11, 2021 - 05:52 PM EDT / 2021.05.11 2152 UTC
Wind: from the SE (140 degrees) at 10 MPH (9 KT) gusting to 16 MPH (14 KT):0
Visibility: 10 mile(s):0
Sky conditions: clear
Temperature: 61.0 F (16.1 C)
Dew Point: 27.0 F (-2.8 C)
Relative Humidity: 27%
Pressure (altimeter): 30.3 in. Hg (1026 hPa)
ob: KSUX 112152Z 14009G14KT 10SM CLR 16/M03 A3030 RMK AO2 SLP264 T01611028
cycle: 22

Station Type Date Time Source
KSUX TAF 2021/05/11 18:27 UTC NOAA

TAF KSUX 111724Z 1118/1218 09010KT P6SM FEW250
FM120600 13005KT P6SM SCT250
FM121500 17010KT P6SM SCT250

Example: see airport list